sensor_id;sensor_type;location;lat;lon;timestamp;P1;durP1;ratioP1;P2;durP2;ratioP2
19621;SDS011;9958;33.196;-97.114;2023-02-22T00:02:01;4.25;;;3.47;;
19621;SDS011;9958;33.196;-97.114;2023-02-22T00:04:51;4.85;;;3.00;;
19621;SDS011;9958;33.196;-97.114;2023-02-22T00:07:20;3.45;;;3.15;;
19621;SDS011;9958;33.196;-97.114;2023-02-22T00:09:50;6.10;;;3.60;;
19621;SDS011;9958;33.196;-97.114;2023-02-22T00:12:18;4.50;;;3.58;;
19621;SDS011;9958;33.196;-97.114;2023-02-22T00:14:46;6.07;;;3.65;;
19621;SDS011;9958;33.196;-97.114;2023-02-22T00:17:15;5.97;;;4.03;;
19621;SDS011;9958;33.196;-97.114;2023-02-22T00:19:44;4.05;;;3.65;;
19621;SDS011;9958;33.196;-97.114;2023-02-22T00:22:15;5.50;;;3.92;;
19621;SDS011;9958;33.196;-97.114;2023-02-22T00:24:45;6.90;;;3.88;;
19621;SDS011;9958;33.196;-97.114;2023-02-22T00:27:16;5.82;;;4.25;;
19621;SDS011;9958;33.196;-97.114;2023-02-22T00:29:45;9.73;;;4.65;;
19621;SDS011;9958;33.196;-97.114;2023-02-22T00:32:14;7.10;;;4.40;;
19621;SDS011;9958;33.196;-97.114;2023-02-22T00:34:42;9.20;;;4.68;;
19621;SDS011;9958;33.196;-97.114;2023-02-22T00:37:10;6.40;;;4.00;;
19621;SDS011;9958;33.196;-97.114;2023-02-22T00:39:39;6.00;;;3.97;;
19621;SDS011;9958;33.196;-97.114;2023-02-22T00:42:07;4.97;;;4.10;;
19621;SDS011;9958;33.196;-97.114;2023-02-22T00:44:40;6.18;;;4.32;;
19621;SDS011;9958;33.196;-97.114;2023-02-22T00:47:08;4.85;;;3.88;;
19621;SDS011;9958;33.196;-97.114;2023-02-22T00:49:37;6.20;;;4.15;;
19621;SDS011;9958;33.196;-97.114;2023-02-22T00:52:05;4.18;;;3.78;;
19621;SDS011;9958;33.196;-97.114;2023-02-22T00:54:34;5.80;;;3.90;;
19621;SDS011;9958;33.196;-97.114;2023-02-22T00:57:02;6.50;;;4.32;;
19621;SDS011;9958;33.196;-97.114;2023-02-22T00:59:31;5.45;;;3.80;;
19621;SDS011;9958;33.196;-97.114;2023-02-22T01:02:01;6.25;;;4.20;;
19621;SDS011;9958;33.196;-97.114;2023-02-22T01:04:29;6.38;;;4.05;;
19621;SDS011;9958;33.196;-97.114;2023-02-22T01:06:57;6.05;;;4.03;;
19621;SDS011;9958;33.196;-97.114;2023-02-22T01:09:26;5.75;;;4.20;;
19621;SDS011;9958;33.196;-97.114;2023-02-22T01:11:54;5.97;;;4.38;;
19621;SDS011;9958;33.196;-97.114;2023-02-22T01:14:24;4.65;;;4.03;;
19621;SDS011;9958;33.196;-97.114;2023-02-22T01:16:53;6.53;;;3.80;;
19621;SDS011;9958;33.196;-97.114;2023-02-22T01:19:23;6.80;;;3.95;;
19621;SDS011;9958;33.196;-97.114;2023-02-22T01:21:52;7.45;;;4.32;;
19621;SDS011;9958;33.196;-97.114;2023-02-22T01:24:20;8.45;;;4.40;;
19621;SDS011;9958;33.196;-97.114;2023-02-22T01:26:50;4.88;;;4.00;;
19621;SDS011;9958;33.196;-97.114;2023-02-22T01:29:19;6.28;;;3.80;;
19621;SDS011;9958;33.196;-97.114;2023-02-22T01:31:50;5.28;;;4.00;;
19621;SDS011;9958;33.196;-97.114;2023-02-22T01:34:20;5.00;;;3.72;;
19621;SDS011;9958;33.196;-97.114;2023-02-22T01:36:51;4.85;;;3.95;;
19621;SDS011;9958;33.196;-97.114;2023-02-22T01:39:19;5.90;;;4.05;;
19621;SDS011;9958;33.196;-97.114;2023-02-22T01:41:48;6.82;;;4.07;;
19621;SDS011;9958;33.196;-97.114;2023-02-22T01:44:18;5.53;;;3.47;;
19621;SDS011;9958;33.196;-97.114;2023-02-22T01:46:52;6.97;;;3.80;;
19621;SDS011;9958;33.196;-97.114;2023-02-22T01:49:23;4.43;;;3.85;;
19621;SDS011;9958;33.196;-97.114;2023-02-22T01:51:54;6.10;;;3.60;;
19621;SDS011;9958;33.196;-97.114;2023-02-22T01:54:25;4.65;;;3.60;;
19621;SDS011;9958;33.196;-97.114;2023-02-22T01:56:57;6.07;;;3.72;;
19621;SDS011;9958;33.196;-97.114;2023-02-22T01:59:30;6.53;;;3.50;;
19621;SDS011;9958;33.196;-97.114;2023-02-22T02:02:02;4.75;;;3.63;;
19621;SDS011;9958;33.196;-97.114;2023-02-22T02:04:32;5.40;;;3.20;;
19621;SDS011;9958;33.196;-97.114;2023-02-22T02:07:02;5.45;;;3.50;;
19621;SDS011;9958;33.196;-97.114;2023-02-22T02:09:35;6.07;;;3.70;;
19621;SDS011;9958;33.196;-97.114;2023-02-22T02:12:09;5.03;;;3.40;;
19621;SDS011;9958;33.196;-97.114;2023-02-22T02:14:40;6.60;;;3.33;;
19621;SDS011;9958;33.196;-97.114;2023-02-22T02:17:09;4.88;;;3.13;;
19621;SDS011;9958;33.196;-97.114;2023-02-22T02:19:42;5.10;;;3.17;;
19621;SDS011;9958;33.196;-97.114;2023-02-22T02:22:18;7.85;;;3.47;;
19621;SDS011;9958;33.196;-97.114;2023-02-22T02:28:37;6.57;;;3.05;;
19621;SDS011;9958;33.196;-97.114;2023-02-22T02:34:34;3.88;;;3.00;;
19621;SDS011;9958;33.196;-97.114;2023-02-22T02:37:09;8.05;;;3.25;;
19621;SDS011;9958;33.196;-97.114;2023-02-22T02:39:44;3.90;;;2.92;;
19621;SDS011;9958;33.196;-97.114;2023-02-22T02:42:19;4.18;;;2.95;;
19621;SDS011;9958;33.196;-97.114;2023-02-22T02:44:51;6.40;;;3.13;;
19621;SDS011;9958;33.196;-97.114;2023-02-22T02:47:24;7.45;;;3.50;;
19621;SDS011;9958;33.196;-97.114;2023-02-22T02:49:57;5.63;;;2.97;;
19621;SDS011;9958;33.196;-97.114;2023-02-22T02:52:29;4.57;;;3.08;;
19621;SDS011;9958;33.196;-97.114;2023-02-22T02:55:00;5.18;;;3.40;;
19621;SDS011;9958;33.196;-97.114;2023-02-22T02:57:30;7.25;;;2.83;;
19621;SDS011;9958;33.196;-97.114;2023-02-22T02:59:58;6.50;;;3.40;;
19621;SDS011;9958;33.196;-97.114;2023-02-22T03:02:31;4.20;;;3.17;;
19621;SDS011;9958;33.196;-97.114;2023-02-22T03:05:11;4.32;;;3.50;;
19621;SDS011;9958;33.196;-97.114;2023-02-22T03:07:49;7.10;;;3.35;;
19621;SDS011;9958;33.196;-97.114;2023-02-22T03:10:29;4.13;;;3.33;;
19621;SDS011;9958;33.196;-97.114;2023-02-22T03:13:08;5.30;;;3.05;;
19621;SDS011;9958;33.196;-97.114;2023-02-22T03:15:49;4.93;;;3.45;;
19621;SDS011;9958;33.196;-97.114;2023-02-22T03:18:26;5.07;;;3.33;;
19621;SDS011;9958;33.196;-97.114;2023-02-22T03:20:58;4.93;;;3.70;;
19621;SDS011;9958;33.196;-97.114;2023-02-22T03:23:36;4.05;;;3.65;;
19621;SDS011;9958;33.196;-97.114;2023-02-22T03:26:13;6.75;;;3.67;;
19621;SDS011;9958;33.196;-97.114;2023-02-22T03:28:48;7.35;;;3.40;;
19621;SDS011;9958;33.196;-97.114;2023-02-22T03:31:21;7.00;;;2.97;;
19621;SDS011;9958;33.196;-97.114;2023-02-22T03:33:53;6.60;;;3.53;;
19621;SDS011;9958;33.196;-97.114;2023-02-22T03:36:24;5.88;;;3.45;;
19621;SDS011;9958;33.196;-97.114;2023-02-22T03:41:25;5.38;;;3.45;;
19621;SDS011;9958;33.196;-97.114;2023-02-22T03:43:56;6.60;;;3.50;;
19621;SDS011;9958;33.196;-97.114;2023-02-22T03:46:28;5.28;;;3.75;;
19621;SDS011;9958;33.196;-97.114;2023-02-22T03:49:01;4.75;;;3.67;;
19621;SDS011;9958;33.196;-97.114;2023-02-22T03:51:34;5.70;;;3.67;;
19621;SDS011;9958;33.196;-97.114;2023-02-22T03:54:04;5.18;;;3.85;;
19621;SDS011;9958;33.196;-97.114;2023-02-22T03:56:36;6.00;;;3.88;;
19621;SDS011;9958;33.196;-97.114;2023-02-22T03:59:11;5.45;;;3.72;;
19621;SDS011;9958;33.196;-97.114;2023-02-22T04:01:40;6.18;;;3.50;;
19621;SDS011;9958;33.196;-97.114;2023-02-22T04:04:10;7.25;;;4.07;;
19621;SDS011;9958;33.196;-97.114;2023-02-22T04:06:38;4.50;;;3.45;;
19621;SDS011;9958;33.196;-97.114;2023-02-22T04:09:07;6.28;;;3.78;;
19621;SDS011;9958;33.196;-97.114;2023-02-22T04:11:35;6.25;;;4.00;;
19621;SDS011;9958;33.196;-97.114;2023-02-22T04:14:03;4.97;;;3.80;;
19621;SDS011;9958;33.196;-97.114;2023-02-22T04:16:32;7.40;;;4.38;;
19621;SDS011;9958;33.196;-97.114;2023-02-22T04:19:00;5.97;;;4.72;;
19621;SDS011;9958;33.196;-97.114;2023-02-22T04:21:30;8.00;;;4.32;;
19621;SDS011;9958;33.196;-97.114;2023-02-22T04:23:58;5.55;;;4.22;;
19621;SDS011;9958;33.196;-97.114;2023-02-22T04:26:26;7.22;;;4.22;;
19621;SDS011;9958;33.196;-97.114;2023-02-22T04:28:55;8.18;;;4.63;;
19621;SDS011;9958;33.196;-97.114;2023-02-22T04:31:23;8.73;;;4.13;;
19621;SDS011;9958;33.196;-97.114;2023-02-22T04:33:51;5.82;;;4.47;;
19621;SDS011;9958;33.196;-97.114;2023-02-22T04:36:20;8.05;;;4.75;;
19621;SDS011;9958;33.196;-97.114;2023-02-22T04:38:50;8.43;;;5.00;;
19621;SDS011;9958;33.196;-97.114;2023-02-22T04:41:18;7.10;;;5.15;;
19621;SDS011;9958;33.196;-97.114;2023-02-22T04:43:46;10.55;;;4.88;;
19621;SDS011;9958;33.196;-97.114;2023-02-22T04:46:15;8.73;;;5.30;;
19621;SDS011;9958;33.196;-97.114;2023-02-22T04:48:43;7.05;;;5.20;;
19621;SDS011;9958;33.196;-97.114;2023-02-22T04:51:11;9.38;;;5.28;;
19621;SDS011;9958;33.196;-97.114;2023-02-22T04:53:40;9.85;;;5.45;;
19621;SDS011;9958;33.196;-97.114;2023-02-22T04:56:10;13.93;;;5.93;;
19621;SDS011;9958;33.196;-97.114;2023-02-22T04:58:38;10.45;;;5.32;;
19621;SDS011;9958;33.196;-97.114;2023-02-22T05:01:06;8.38;;;6.00;;
19621;SDS011;9958;33.196;-97.114;2023-02-22T05:03:36;8.88;;;6.40;;
19621;SDS011;9958;33.196;-97.114;2023-02-22T05:06:04;12.93;;;6.07;;
19621;SDS011;9958;33.196;-97.114;2023-02-22T05:08:33;8.82;;;6.75;;
19621;SDS011;9958;33.196;-97.114;2023-02-22T05:11:02;10.23;;;6.32;;
19621;SDS011;9958;33.196;-97.114;2023-02-22T05:13:32;8.60;;;5.95;;
19621;SDS011;9958;33.196;-97.114;2023-02-22T05:16:00;10.93;;;6.28;;
19621;SDS011;9958;33.196;-97.114;2023-02-22T05:18:29;9.20;;;6.68;;
19621;SDS011;9958;33.196;-97.114;2023-02-22T05:20:57;12.85;;;6.70;;
19621;SDS011;9958;33.196;-97.114;2023-02-22T05:23:26;9.30;;;6.50;;
19621;SDS011;9958;33.196;-97.114;2023-02-22T05:25:54;12.05;;;6.35;;
19621;SDS011;9958;33.196;-97.114;2023-02-22T05:28:23;11.48;;;6.53;;
19621;SDS011;9958;33.196;-97.114;2023-02-22T05:30:52;10.77;;;6.85;;
19621;SDS011;9958;33.196;-97.114;2023-02-22T05:33:21;9.43;;;7.13;;
19621;SDS011;9958;33.196;-97.114;2023-02-22T05:35:49;10.93;;;6.88;;
19621;SDS011;9958;33.196;-97.114;2023-02-22T05:38:20;15.55;;;7.18;;
19621;SDS011;9958;33.196;-97.114;2023-02-22T05:40:49;12.85;;;7.35;;
19621;SDS011;9958;33.196;-97.114;2023-02-22T05:43:17;14.07;;;7.75;;
19621;SDS011;9958;33.196;-97.114;2023-02-22T05:45:46;10.65;;;6.65;;
19621;SDS011;9958;33.196;-97.114;2023-02-22T05:48:15;13.60;;;6.82;;
19621;SDS011;9958;33.196;-97.114;2023-02-22T05:50:44;12.13;;;7.18;;
19621;SDS011;9958;33.196;-97.114;2023-02-22T05:53:14;12.88;;;7.25;;
19621;SDS011;9958;33.196;-97.114;2023-02-22T05:55:42;15.02;;;7.20;;
19621;SDS011;9958;33.196;-97.114;2023-02-22T05:58:10;13.30;;;7.47;;
19621;SDS011;9958;33.196;-97.114;2023-02-22T06:00:39;9.40;;;7.43;;
19621;SDS011;9958;33.196;-97.114;2023-02-22T06:03:08;13.27;;;7.15;;
19621;SDS011;9958;33.196;-97.114;2023-02-22T06:05:38;15.18;;;7.57;;
19621;SDS011;9958;33.196;-97.114;2023-02-22T06:08:07;12.32;;;8.27;;
19621;SDS011;9958;33.196;-97.114;2023-02-22T06:10:36;11.63;;;7.38;;
19621;SDS011;9958;33.196;-97.114;2023-02-22T06:13:04;13.48;;;8.05;;
19621;SDS011;9958;33.196;-97.114;2023-02-22T06:15:32;14.07;;;8.35;;
19621;SDS011;9958;33.196;-97.114;2023-02-22T06:18:01;15.68;;;8.00;;
19621;SDS011;9958;33.196;-97.114;2023-02-22T06:20:29;15.32;;;8.20;;
19621;SDS011;9958;33.196;-97.114;2023-02-22T06:23:01;14.88;;;8.43;;
19621;SDS011;9958;33.196;-97.114;2023-02-22T06:25:30;16.02;;;8.15;;
19621;SDS011;9958;33.196;-97.114;2023-02-22T06:27:58;13.88;;;7.97;;
19621;SDS011;9958;33.196;-97.114;2023-02-22T06:30:27;11.93;;;8.50;;
19621;SDS011;9958;33.196;-97.114;2023-02-22T06:32:56;15.50;;;8.30;;
19621;SDS011;9958;33.196;-97.114;2023-02-22T06:35:24;14.10;;;8.35;;
19621;SDS011;9958;33.196;-97.114;2023-02-22T06:37:53;11.95;;;8.05;;
19621;SDS011;9958;33.196;-97.114;2023-02-22T06:40:23;15.55;;;8.93;;
19621;SDS011;9958;33.196;-97.114;2023-02-22T06:42:53;13.85;;;8.38;;
19621;SDS011;9958;33.196;-97.114;2023-02-22T06:45:22;12.95;;;8.85;;
19621;SDS011;9958;33.196;-97.114;2023-02-22T06:47:50;15.73;;;8.93;;
19621;SDS011;9958;33.196;-97.114;2023-02-22T06:50:19;16.73;;;8.70;;
19621;SDS011;9958;33.196;-97.114;2023-02-22T06:52:49;14.65;;;8.88;;
19621;SDS011;9958;33.196;-97.114;2023-02-22T06:55:18;16.80;;;8.75;;
19621;SDS011;9958;33.196;-97.114;2023-02-22T06:57:49;13.95;;;8.77;;
19621;SDS011;9958;33.196;-97.114;2023-02-22T07:00:18;13.82;;;8.40;;
19621;SDS011;9958;33.196;-97.114;2023-02-22T07:02:49;15.35;;;8.30;;
19621;SDS011;9958;33.196;-97.114;2023-02-22T07:05:18;16.05;;;9.05;;
19621;SDS011;9958;33.196;-97.114;2023-02-22T07:07:48;13.23;;;8.20;;
19621;SDS011;9958;33.196;-97.114;2023-02-22T07:10:19;11.55;;;8.43;;
19621;SDS011;9958;33.196;-97.114;2023-02-22T07:12:52;11.75;;;7.70;;
19621;SDS011;9958;33.196;-97.114;2023-02-22T07:15:21;13.20;;;8.30;;
19621;SDS011;9958;33.196;-97.114;2023-02-22T07:17:50;12.18;;;8.10;;
19621;SDS011;9958;33.196;-97.114;2023-02-22T07:20:19;14.20;;;8.00;;
19621;SDS011;9958;33.196;-97.114;2023-02-22T07:22:48;15.65;;;9.05;;
19621;SDS011;9958;33.196;-97.114;2023-02-22T07:25:17;12.27;;;7.93;;
19621;SDS011;9958;33.196;-97.114;2023-02-22T07:27:46;12.73;;;8.10;;
19621;SDS011;9958;33.196;-97.114;2023-02-22T07:30:18;12.52;;;8.32;;
19621;SDS011;9958;33.196;-97.114;2023-02-22T07:32:50;13.68;;;8.45;;
19621;SDS011;9958;33.196;-97.114;2023-02-22T07:35:20;14.10;;;7.60;;
19621;SDS011;9958;33.196;-97.114;2023-02-22T07:37:50;14.05;;;8.13;;
19621;SDS011;9958;33.196;-97.114;2023-02-22T07:40:19;16.38;;;8.70;;
19621;SDS011;9958;33.196;-97.114;2023-02-22T07:42:54;14.80;;;8.20;;
19621;SDS011;9958;33.196;-97.114;2023-02-22T07:45:26;17.77;;;8.80;;
19621;SDS011;9958;33.196;-97.114;2023-02-22T07:47:56;17.75;;;8.75;;
19621;SDS011;9958;33.196;-97.114;2023-02-22T07:50:25;12.27;;;8.45;;
19621;SDS011;9958;33.196;-97.114;2023-02-22T07:52:55;14.00;;;7.95;;
19621;SDS011;9958;33.196;-97.114;2023-02-22T07:55:25;13.30;;;8.13;;
19621;SDS011;9958;33.196;-97.114;2023-02-22T07:57:55;11.57;;;8.10;;
19621;SDS011;9958;33.196;-97.114;2023-02-22T08:00:27;12.93;;;8.05;;
19621;SDS011;9958;33.196;-97.114;2023-02-22T08:02:57;11.77;;;8.23;;
19621;SDS011;9958;33.196;-97.114;2023-02-22T08:05:26;14.82;;;9.48;;
19621;SDS011;9958;33.196;-97.114;2023-02-22T08:07:55;13.63;;;7.93;;
19621;SDS011;9958;33.196;-97.114;2023-02-22T08:10:24;12.77;;;8.02;;
19621;SDS011;9958;33.196;-97.114;2023-02-22T08:12:53;14.27;;;8.52;;
19621;SDS011;9958;33.196;-97.114;2023-02-22T08:15:23;16.13;;;7.68;;
19621;SDS011;9958;33.196;-97.114;2023-02-22T08:17:54;12.20;;;7.63;;
19621;SDS011;9958;33.196;-97.114;2023-02-22T08:20:23;12.32;;;8.15;;
19621;SDS011;9958;33.196;-97.114;2023-02-22T08:22:52;14.00;;;7.78;;
19621;SDS011;9958;33.196;-97.114;2023-02-22T08:25:23;13.75;;;7.82;;
19621;SDS011;9958;33.196;-97.114;2023-02-22T08:27:55;13.05;;;7.43;;
19621;SDS011;9958;33.196;-97.114;2023-02-22T08:30:27;12.98;;;7.45;;
19621;SDS011;9958;33.196;-97.114;2023-02-22T08:32:57;9.95;;;7.35;;
19621;SDS011;9958;33.196;-97.114;2023-02-22T08:35:27;10.90;;;7.35;;
19621;SDS011;9958;33.196;-97.114;2023-02-22T08:37:56;14.18;;;8.10;;
19621;SDS011;9958;33.196;-97.114;2023-02-22T08:40:27;16.42;;;8.38;;
19621;SDS011;9958;33.196;-97.114;2023-02-22T08:42:56;10.98;;;7.63;;
19621;SDS011;9958;33.196;-97.114;2023-02-22T08:45:27;10.77;;;6.68;;
19621;SDS011;9958;33.196;-97.114;2023-02-22T08:47:56;9.25;;;7.43;;
19621;SDS011;9958;33.196;-97.114;2023-02-22T08:50:25;11.30;;;7.35;;
19621;SDS011;9958;33.196;-97.114;2023-02-22T08:52:55;13.10;;;7.40;;
19621;SDS011;9958;33.196;-97.114;2023-02-22T08:55:26;11.50;;;7.00;;
19621;SDS011;9958;33.196;-97.114;2023-02-22T08:57:56;9.65;;;7.18;;
19621;SDS011;9958;33.196;-97.114;2023-02-22T09:00:27;11.70;;;7.93;;
19621;SDS011;9958;33.196;-97.114;2023-02-22T09:02:57;16.45;;;7.35;;
19621;SDS011;9958;33.196;-97.114;2023-02-22T09:05:26;9.52;;;7.38;;
19621;SDS011;9958;33.196;-97.114;2023-02-22T09:07:54;12.75;;;7.63;;
19621;SDS011;9958;33.196;-97.114;2023-02-22T09:10:23;17.73;;;8.00;;
19621;SDS011;9958;33.196;-97.114;2023-02-22T09:12:53;10.05;;;7.10;;
19621;SDS011;9958;33.196;-97.114;2023-02-22T09:15:23;10.88;;;7.07;;
19621;SDS011;9958;33.196;-97.114;2023-02-22T09:17:53;11.43;;;7.30;;
19621;SDS011;9958;33.196;-97.114;2023-02-22T09:20:22;9.05;;;7.38;;
19621;SDS011;9958;33.196;-97.114;2023-02-22T09:22:51;10.05;;;6.82;;
19621;SDS011;9958;33.196;-97.114;2023-02-22T09:25:20;11.10;;;7.13;;
19621;SDS011;9958;33.196;-97.114;2023-02-22T09:27:48;10.23;;;7.03;;
19621;SDS011;9958;33.196;-97.114;2023-02-22T09:30:21;13.45;;;7.38;;
19621;SDS011;9958;33.196;-97.114;2023-02-22T09:32:53;9.18;;;6.57;;
19621;SDS011;9958;33.196;-97.114;2023-02-22T09:35:23;15.98;;;7.35;;
19621;SDS011;9958;33.196;-97.114;2023-02-22T09:37:53;10.55;;;7.10;;
19621;SDS011;9958;33.196;-97.114;2023-02-22T09:40:21;12.35;;;7.85;;
19621;SDS011;9958;33.196;-97.114;2023-02-22T09:43:02;11.30;;;7.72;;
19621;SDS011;9958;33.196;-97.114;2023-02-22T09:45:37;7.93;;;6.78;;
19621;SDS011;9958;33.196;-97.114;2023-02-22T09:48:14;10.40;;;6.95;;
19621;SDS011;9958;33.196;-97.114;2023-02-22T09:50:44;9.73;;;7.22;;
19621;SDS011;9958;33.196;-97.114;2023-02-22T09:53:17;12.00;;;7.13;;
19621;SDS011;9958;33.196;-97.114;2023-02-22T09:55:54;9.13;;;7.70;;
19621;SDS011;9958;33.196;-97.114;2023-02-22T09:58:27;12.93;;;7.70;;
19621;SDS011;9958;33.196;-97.114;2023-02-22T10:01:06;14.25;;;8.23;;
19621;SDS011;9958;33.196;-97.114;2023-02-22T10:03:46;11.38;;;7.85;;
19621;SDS011;9958;33.196;-97.114;2023-02-22T10:06:19;12.20;;;7.93;;
19621;SDS011;9958;33.196;-97.114;2023-02-22T10:08:50;16.55;;;9.20;;
19621;SDS011;9958;33.196;-97.114;2023-02-22T10:11:28;12.70;;;8.23;;
19621;SDS011;9958;33.196;-97.114;2023-02-22T10:14:18;17.27;;;9.05;;
19621;SDS011;9958;33.196;-97.114;2023-02-22T10:17:14;12.82;;;7.93;;
19621;SDS011;9958;33.196;-97.114;2023-02-22T10:19:56;14.38;;;9.45;;
19621;SDS011;9958;33.196;-97.114;2023-02-22T10:22:44;14.38;;;8.52;;
19621;SDS011;9958;33.196;-97.114;2023-02-22T10:25:22;10.68;;;8.43;;
19621;SDS011;9958;33.196;-97.114;2023-02-22T10:27:54;13.50;;;8.05;;
19621;SDS011;9958;33.196;-97.114;2023-02-22T10:30:25;13.25;;;8.98;;
19621;SDS011;9958;33.196;-97.114;2023-02-22T10:33:00;13.38;;;8.05;;
19621;SDS011;9958;33.196;-97.114;2023-02-22T10:35:34;13.50;;;8.25;;
19621;SDS011;9958;33.196;-97.114;2023-02-22T10:38:11;13.85;;;8.48;;
19621;SDS011;9958;33.196;-97.114;2023-02-22T10:40:45;14.88;;;7.75;;
19621;SDS011;9958;33.196;-97.114;2023-02-22T10:43:17;12.27;;;8.43;;
19621;SDS011;9958;33.196;-97.114;2023-02-22T10:45:45;14.18;;;9.05;;
19621;SDS011;9958;33.196;-97.114;2023-02-22T10:48:15;11.45;;;8.35;;
19621;SDS011;9958;33.196;-97.114;2023-02-22T10:50:47;12.73;;;9.05;;
19621;SDS011;9958;33.196;-97.114;2023-02-22T10:53:15;13.80;;;8.27;;
19621;SDS011;9958;33.196;-97.114;2023-02-22T10:58:41;13.63;;;9.15;;
19621;SDS011;9958;33.196;-97.114;2023-02-22T11:04:02;15.05;;;8.85;;
19621;SDS011;9958;33.196;-97.114;2023-02-22T11:06:39;12.77;;;8.68;;
19621;SDS011;9958;33.196;-97.114;2023-02-22T11:09:12;13.82;;;8.27;;
19621;SDS011;9958;33.196;-97.114;2023-02-22T11:11:43;14.35;;;8.60;;
19621;SDS011;9958;33.196;-97.114;2023-02-22T11:14:13;12.45;;;8.82;;
19621;SDS011;9958;33.196;-97.114;2023-02-22T11:16:52;11.20;;;8.27;;
19621;SDS011;9958;33.196;-97.114;2023-02-22T11:19:23;13.50;;;8.93;;
19621;SDS011;9958;33.196;-97.114;2023-02-22T11:21:54;15.70;;;8.88;;
19621;SDS011;9958;33.196;-97.114;2023-02-22T11:24:25;10.30;;;5.80;;
19621;SDS011;9958;33.196;-97.114;2023-02-22T11:26:57;3.00;;;2.80;;
19621;SDS011;9958;33.196;-97.114;2023-02-22T11:29:28;2.17;;;1.70;;
19621;SDS011;9958;33.196;-97.114;2023-02-22T11:31:59;2.90;;;1.67;;
19621;SDS011;9958;33.196;-97.114;2023-02-22T11:34:32;1.83;;;1.13;;
19621;SDS011;9958;33.196;-97.114;2023-02-22T11:37:17;0.82;;;0.82;;
19621;SDS011;9958;33.196;-97.114;2023-02-22T11:40:11;1.05;;;0.95;;
19621;SDS011;9958;33.196;-97.114;2023-02-22T11:42:44;4.25;;;1.15;;
19621;SDS011;9958;33.196;-97.114;2023-02-22T11:45:13;1.10;;;1.00;;
19621;SDS011;9958;33.196;-97.114;2023-02-22T11:47:51;1.48;;;1.38;;
19621;SDS011;9958;33.196;-97.114;2023-02-22T11:50:28;5.93;;;1.42;;
19621;SDS011;9958;33.196;-97.114;2023-02-22T11:53:07;2.53;;;0.98;;
19621;SDS011;9958;33.196;-97.114;2023-02-22T11:55:51;1.98;;;0.90;;
19621;SDS011;9958;33.196;-97.114;2023-02-22T11:58:33;2.13;;;1.10;;
19621;SDS011;9958;33.196;-97.114;2023-02-22T12:01:10;4.05;;;1.13;;
19621;SDS011;9958;33.196;-97.114;2023-02-22T12:06:57;5.93;;;1.25;;
19621;SDS011;9958;33.196;-97.114;2023-02-22T12:09:43;2.78;;;0.90;;
19621;SDS011;9958;33.196;-97.114;2023-02-22T12:12:19;1.08;;;0.90;;
19621;SDS011;9958;33.196;-97.114;2023-02-22T12:14:55;6.60;;;0.95;;
19621;SDS011;9958;33.196;-97.114;2023-02-22T12:17:32;1.52;;;1.00;;
19621;SDS011;9958;33.196;-97.114;2023-02-22T12:20:11;3.08;;;1.48;;
19621;SDS011;9958;33.196;-97.114;2023-02-22T12:22:52;1.52;;;0.95;;
19621;SDS011;9958;33.196;-97.114;2023-02-22T12:25:27;1.75;;;1.10;;
19621;SDS011;9958;33.196;-97.114;2023-02-22T12:28:01;1.17;;;1.00;;
19621;SDS011;9958;33.196;-97.114;2023-02-22T12:30:38;3.00;;;1.05;;
19621;SDS011;9958;33.196;-97.114;2023-02-22T12:33:11;3.92;;;0.88;;
19621;SDS011;9958;33.196;-97.114;2023-02-22T12:35:43;4.93;;;1.05;;
19621;SDS011;9958;33.196;-97.114;2023-02-22T12:38:19;1.00;;;0.70;;
19621;SDS011;9958;33.196;-97.114;2023-02-22T12:40:53;1.23;;;0.98;;
19621;SDS011;9958;33.196;-97.114;2023-02-22T12:43:28;1.25;;;1.05;;
19621;SDS011;9958;33.196;-97.114;2023-02-22T12:46:04;1.50;;;1.13;;
19621;SDS011;9958;33.196;-97.114;2023-02-22T12:48:39;1.08;;;0.90;;
19621;SDS011;9958;33.196;-97.114;2023-02-22T12:51:16;2.22;;;0.88;;
19621;SDS011;9958;33.196;-97.114;2023-02-22T12:53:55;1.67;;;1.20;;
19621;SDS011;9958;33.196;-97.114;2023-02-22T12:56:31;1.02;;;0.88;;
19621;SDS011;9958;33.196;-97.114;2023-02-22T12:59:06;3.17;;;0.82;;
19621;SDS011;9958;33.196;-97.114;2023-02-22T13:01:41;2.83;;;0.80;;
19621;SDS011;9958;33.196;-97.114;2023-02-22T13:04:11;1.00;;;0.82;;
19621;SDS011;9958;33.196;-97.114;2023-02-22T13:06:47;2.95;;;0.75;;
19621;SDS011;9958;33.196;-97.114;2023-02-22T13:09:39;3.75;;;0.85;;
19621;SDS011;9958;33.196;-97.114;2023-02-22T13:12:18;1.90;;;0.98;;
19621;SDS011;9958;33.196;-97.114;2023-02-22T13:14:53;3.15;;;0.80;;
19621;SDS011;9958;33.196;-97.114;2023-02-22T13:17:30;2.15;;;0.90;;
19621;SDS011;9958;33.196;-97.114;2023-02-22T13:20:06;1.20;;;0.88;;
19621;SDS011;9958;33.196;-97.114;2023-02-22T13:22:44;1.10;;;1.00;;
19621;SDS011;9958;33.196;-97.114;2023-02-22T13:25:18;1.42;;;1.00;;
19621;SDS011;9958;33.196;-97.114;2023-02-22T13:27:53;1.25;;;0.98;;
19621;SDS011;9958;33.196;-97.114;2023-02-22T13:30:28;0.77;;;0.77;;
19621;SDS011;9958;33.196;-97.114;2023-02-22T13:33:10;0.70;;;0.70;;
19621;SDS011;9958;33.196;-97.114;2023-02-22T13:35:51;1.80;;;0.77;;
19621;SDS011;9958;33.196;-97.114;2023-02-22T13:38:54;1.55;;;0.85;;
19621;SDS011;9958;33.196;-97.114;2023-02-22T13:41:58;0.85;;;0.85;;
19621;SDS011;9958;33.196;-97.114;2023-02-22T13:45:01;0.60;;;0.60;;
19621;SDS011;9958;33.196;-97.114;2023-02-22T13:54:05;1.95;;;0.68;;
19621;SDS011;9958;33.196;-97.114;2023-02-22T13:56:40;1.85;;;0.50;;
19621;SDS011;9958;33.196;-97.114;2023-02-22T13:59:20;4.68;;;0.90;;
19621;SDS011;9958;33.196;-97.114;2023-02-22T14:01:55;0.80;;;0.73;;
19621;SDS011;9958;33.196;-97.114;2023-02-22T14:10:35;1.77;;;0.80;;
19621;SDS011;9958;33.196;-97.114;2023-02-22T14:13:15;1.58;;;0.60;;
19621;SDS011;9958;33.196;-97.114;2023-02-22T14:18:46;1.35;;;0.50;;
19621;SDS011;9958;33.196;-97.114;2023-02-22T14:21:16;2.30;;;1.05;;
19621;SDS011;9958;33.196;-97.114;2023-02-22T14:23:46;1.23;;;0.68;;
19621;SDS011;9958;33.196;-97.114;2023-02-22T14:26:17;2.10;;;0.73;;
19621;SDS011;9958;33.196;-97.114;2023-02-22T14:28:52;1.50;;;0.50;;
19621;SDS011;9958;33.196;-97.114;2023-02-22T14:31:23;1.15;;;0.65;;
19621;SDS011;9958;33.196;-97.114;2023-02-22T14:33:59;0.60;;;0.60;;
19621;SDS011;9958;33.196;-97.114;2023-02-22T14:36:34;1.88;;;0.60;;
19621;SDS011;9958;33.196;-97.114;2023-02-22T14:39:16;1.25;;;0.77;;
19621;SDS011;9958;33.196;-97.114;2023-02-22T14:41:51;0.63;;;0.63;;
19621;SDS011;9958;33.196;-97.114;2023-02-22T14:44:26;1.10;;;0.70;;
19621;SDS011;9958;33.196;-97.114;2023-02-22T14:46:58;1.77;;;0.70;;
19621;SDS011;9958;33.196;-97.114;2023-02-22T14:49:34;0.95;;;0.70;;
19621;SDS011;9958;33.196;-97.114;2023-02-22T14:52:10;2.25;;;0.90;;
19621;SDS011;9958;33.196;-97.114;2023-02-22T14:54:55;1.05;;;0.65;;
19621;SDS011;9958;33.196;-97.114;2023-02-22T14:57:32;1.48;;;0.88;;
19621;SDS011;9958;33.196;-97.114;2023-02-22T15:00:12;0.98;;;0.70;;
19621;SDS011;9958;33.196;-97.114;2023-02-22T15:02:47;0.50;;;0.50;;
19621;SDS011;9958;33.196;-97.114;2023-02-22T15:05:23;1.40;;;0.80;;
19621;SDS011;9958;33.196;-97.114;2023-02-22T15:07:55;0.65;;;0.63;;
19621;SDS011;9958;33.196;-97.114;2023-02-22T15:10:25;1.20;;;0.52;;
19621;SDS011;9958;33.196;-97.114;2023-02-22T15:12:57;1.30;;;0.90;;
19621;SDS011;9958;33.196;-97.114;2023-02-22T15:15:39;0.80;;;0.50;;
19621;SDS011;9958;33.196;-97.114;2023-02-22T15:20:56;1.75;;;0.68;;
19621;SDS011;9958;33.196;-97.114;2023-02-22T15:23:30;5.45;;;0.95;;
19621;SDS011;9958;33.196;-97.114;2023-02-22T15:26:07;2.17;;;0.93;;
19621;SDS011;9958;33.196;-97.114;2023-02-22T15:28:43;0.45;;;0.45;;
19621;SDS011;9958;33.196;-97.114;2023-02-22T15:31:17;0.70;;;0.63;;
19621;SDS011;9958;33.196;-97.114;2023-02-22T15:33:53;0.50;;;0.50;;
19621;SDS011;9958;33.196;-97.114;2023-02-22T15:36:25;0.77;;;0.65;;